createdAt,value
2023-01-29T00:00:18.942Z,1.31
2023-01-29T00:01:20.803Z,1.31
2023-01-29T00:02:23.899Z,1.31
2023-01-29T00:03:25.720Z,1.32
2023-01-29T00:04:29.719Z,1.30
2023-01-29T00:05:31.522Z,1.31
2023-01-29T00:06:34.399Z,1.29
2023-01-29T00:07:36.086Z,1.27
2023-01-29T00:08:39.503Z,1.25
2023-01-29T00:09:41.319Z,1.24
2023-01-29T00:10:44.046Z,1.23
2023-01-29T00:11:47.026Z,1.25
2023-01-29T00:12:48.831Z,1.26
2023-01-29T00:13:51.852Z,1.29
2023-01-29T00:14:54.890Z,1.30
2023-01-29T00:15:58.422Z,1.31
2023-01-29T00:17:00.479Z,1.31
2023-01-29T00:18:03.150Z,1.31
2023-01-29T00:19:04.846Z,1.30
2023-01-29T00:20:10.446Z,1.28
2023-01-29T00:21:13.450Z,1.26
2023-01-29T00:22:16.177Z,1.24
2023-01-29T00:23:17.999Z,1.22
2023-01-29T00:24:20.711Z,1.24
2023-01-29T00:25:22.501Z,1.24
2023-01-29T00:26:25.154Z,1.25
2023-01-29T00:27:26.906Z,1.26
2023-01-29T00:28:29.679Z,1.25
2023-01-29T00:29:31.386Z,1.26
2023-01-29T00:30:34.017Z,1.26
2023-01-29T00:31:35.879Z,1.25
2023-01-29T00:32:38.891Z,1.25
2023-01-29T00:33:40.665Z,1.22
2023-01-29T00:34:43.334Z,1.11
2023-01-29T00:35:46.442Z,1.05
2023-01-29T00:36:49.135Z,1.00
2023-01-29T00:37:50.804Z,0.98
2023-01-29T00:38:58.831Z,0.95
2023-01-29T00:40:00.654Z,0.93
2023-01-29T00:41:24.742Z,0.92
2023-01-29T00:42:45.107Z,0.93
2023-01-29T00:44:05.599Z,0.93
2023-01-29T00:45:09.280Z,0.92
2023-01-29T00:46:11.109Z,0.91
2023-01-29T00:47:27.726Z,0.91
2023-01-29T00:48:30.512Z,0.91
2023-01-29T00:49:32.268Z,0.92
2023-01-29T00:50:35.031Z,0.93
2023-01-29T00:51:39.177Z,0.95
2023-01-29T00:52:42.138Z,0.92
2023-01-29T00:53:43.870Z,0.94
2023-01-29T00:54:46.561Z,0.95
2023-01-29T00:55:48.365Z,0.94
2023-01-29T00:56:51.065Z,0.93
2023-01-29T00:57:53.864Z,0.95
2023-01-29T00:58:55.690Z,0.94
2023-01-29T00:59:58.477Z,0.97
2023-01-29T01:01:02.113Z,0.99
2023-01-29T01:02:22.672Z,1.00
2023-01-29T01:03:25.458Z,1.01
2023-01-29T01:04:27.147Z,1.03
2023-01-29T01:05:30.087Z,1.04
2023-01-29T01:06:31.823Z,1.03
2023-01-29T01:07:35.889Z,1.01
2023-01-29T01:08:56.074Z,1.01
2023-01-29T01:10:16.762Z,1.00
2023-01-29T01:11:20.711Z,1.01
2023-01-29T01:12:22.719Z,1.01
2023-01-29T01:13:25.480Z,1.02
2023-01-29T01:14:27.319Z,1.03
2023-01-29T01:15:32.973Z,1.05
2023-01-29T01:16:34.785Z,1.05
2023-01-29T01:17:37.637Z,1.04
2023-01-29T01:18:39.586Z,1.03
2023-01-29T01:19:42.426Z,1.02
2023-01-29T01:20:44.180Z,1.02
2023-01-29T01:21:48.317Z,1.04
2023-01-29T01:22:51.880Z,1.02
2023-01-29T01:23:54.742Z,1.02
2023-01-29T01:24:56.493Z,1.02
2023-01-29T01:25:59.298Z,1.04
2023-01-29T01:27:01.029Z,1.05
2023-01-29T01:28:03.709Z,1.05
2023-01-29T01:29:05.556Z,1.07
2023-01-29T01:30:11.541Z,1.09
2023-01-29T01:31:14.186Z,1.09
2023-01-29T01:32:17.021Z,1.10
2023-01-29T01:33:18.869Z,1.10
2023-01-29T01:34:22.076Z,1.10
2023-01-29T01:35:23.899Z,1.09
2023-01-29T01:36:26.609Z,1.08
2023-01-29T01:37:28.277Z,1.09
2023-01-29T01:38:32.385Z,1.10
2023-01-29T01:39:34.060Z,1.12
2023-01-29T01:40:36.842Z,1.14
2023-01-29T01:41:38.755Z,1.16
2023-01-29T01:42:41.472Z,1.17
2023-01-29T01:43:51.013Z,1.18
2023-01-29T01:44:56.780Z,1.19
2023-01-29T01:45:58.541Z,1.20
2023-01-29T01:47:02.238Z,1.20
2023-01-29T01:48:07.331Z,1.20
2023-01-29T01:49:12.248Z,1.23
2023-01-29T01:50:17.597Z,1.24
2023-01-29T01:51:21.882Z,1.26
2023-01-29T01:52:23.821Z,1.28
2023-01-29T01:53:30.626Z,1.28
2023-01-29T01:54:33.752Z,1.29
2023-01-29T01:55:39.626Z,1.30
2023-01-29T01:56:44.041Z,1.30
2023-01-29T01:57:49.317Z,1.33
2023-01-29T01:58:52.636Z,1.33
2023-01-29T01:59:59.064Z,1.34
2023-01-29T02:01:02.385Z,1.34
2023-01-29T02:02:23.802Z,1.35
2023-01-29T02:03:44.939Z,1.37
2023-01-29T02:05:06.863Z,1.38
2023-01-29T02:06:28.926Z,1.40
2023-01-29T02:07:49.384Z,1.40
2023-01-29T02:09:13.553Z,1.42
2023-01-29T02:10:18.493Z,1.40
2023-01-29T02:11:20.487Z,1.41
2023-01-29T02:12:23.698Z,1.40
2023-01-29T02:13:25.558Z,1.40
2023-01-29T02:14:28.458Z,1.40
2023-01-29T02:15:30.149Z,1.39
2023-01-29T02:16:35.013Z,1.38
2023-01-29T02:17:36.918Z,1.38
2023-01-29T02:18:39.829Z,1.36
2023-01-29T02:19:47.967Z,1.36
2023-01-29T02:21:05.844Z,1.36
2023-01-29T02:22:25.836Z,1.35
2023-01-29T02:23:59.458Z,1.35
2023-01-29T02:25:39.632Z,1.35
2023-01-29T02:26:54.483Z,1.36
2023-01-29T02:28:22.617Z,1.35
2023-01-29T02:29:33.294Z,1.35
2023-01-29T02:30:39.304Z,1.36
2023-01-29T02:31:44.434Z,1.35
2023-01-29T02:32:58.391Z,1.35
2023-01-29T02:34:07.554Z,1.35
2023-01-29T02:35:28.931Z,1.33
2023-01-29T02:36:34.970Z,1.34
2023-01-29T02:37:40.338Z,1.33
2023-01-29T02:38:46.030Z,1.33
2023-01-29T02:39:54.376Z,1.31
2023-01-29T02:40:58.588Z,1.31
2023-01-29T02:42:03.968Z,1.30
2023-01-29T02:43:18.521Z,1.29
2023-01-29T02:44:24.808Z,1.29
2023-01-29T02:45:32.994Z,1.28
2023-01-29T02:46:39.352Z,1.27
2023-01-29T02:47:45.119Z,1.26
2023-01-29T02:48:55.499Z,1.24
2023-01-29T02:50:02.724Z,1.24
2023-01-29T02:51:08.056Z,1.22
2023-01-29T02:52:15.236Z,1.22
2023-01-29T02:53:20.046Z,1.23
2023-01-29T02:54:24.862Z,1.23
2023-01-29T02:55:33.227Z,1.23
2023-01-29T02:56:37.758Z,1.23
2023-01-29T02:57:44.532Z,1.22
2023-01-29T02:58:52.214Z,1.19
2023-01-29T02:59:57.536Z,1.17
2023-01-29T03:01:03.111Z,1.12
2023-01-29T03:02:09.603Z,1.09
2023-01-29T03:03:14.728Z,1.03
2023-01-29T03:04:20.895Z,1.00
2023-01-29T03:05:27.740Z,0.92
2023-01-29T03:06:34.148Z,0.86
2023-01-29T03:07:42.759Z,0.81
2023-01-29T03:08:50.109Z,0.76
2023-01-29T03:09:53.259Z,0.72
2023-01-29T03:10:59.415Z,0.71
2023-01-29T03:12:19.912Z,0.67
2023-01-29T03:13:27.773Z,0.68
2023-01-29T03:14:59.474Z,0.69
2023-01-29T03:16:06.075Z,0.70
2023-01-29T03:17:08.985Z,0.71
2023-01-29T03:18:15.078Z,0.72
2023-01-29T03:19:19.971Z,0.75
2023-01-29T03:20:26.599Z,0.77
2023-01-29T03:21:50.164Z,0.80
2023-01-29T03:22:55.799Z,0.82
2023-01-29T03:24:16.985Z,0.83
2023-01-29T03:25:40.091Z,0.86
2023-01-29T03:27:01.788Z,0.88
2023-01-29T03:28:23.309Z,0.90
2023-01-29T03:29:43.683Z,0.93
2023-01-29T03:31:07.418Z,0.93
2023-01-29T03:32:10.923Z,0.93
2023-01-29T03:33:15.513Z,0.92
2023-01-29T03:34:24.170Z,0.92
2023-01-29T03:35:33.540Z,0.90
2023-01-29T03:36:39.934Z,0.87
2023-01-29T03:37:43.805Z,0.85
2023-01-29T03:38:46.600Z,0.84
2023-01-29T03:39:48.449Z,0.84
2023-01-29T03:40:54.843Z,0.84
2023-01-29T03:41:59.365Z,0.86
2023-01-29T03:43:10.196Z,0.88
2023-01-29T03:44:15.000Z,0.88
2023-01-29T03:45:27.349Z,0.90
2023-01-29T03:46:33.420Z,0.91
2023-01-29T03:47:44.590Z,0.92
2023-01-29T03:48:53.366Z,0.93
2023-01-29T03:49:59.098Z,0.95
2023-01-29T03:51:07.850Z,0.97
2023-01-29T03:52:16.037Z,0.96
2023-01-29T03:53:22.690Z,0.96
2023-01-29T03:54:28.282Z,0.95
2023-01-29T03:55:35.373Z,0.97
2023-01-29T03:56:44.669Z,0.98
2023-01-29T03:57:53.705Z,0.99
2023-01-29T03:58:59.783Z,1.00
2023-01-29T04:00:05.998Z,0.99
2023-01-29T04:01:12.635Z,1.02
2023-01-29T04:02:19.334Z,1.03
2023-01-29T04:03:23.927Z,1.03
2023-01-29T04:04:28.254Z,1.05
2023-01-29T04:05:34.702Z,1.06
2023-01-29T04:06:37.851Z,1.08
2023-01-29T04:07:41.916Z,1.09
2023-01-29T04:08:48.313Z,1.10
2023-01-29T04:09:52.796Z,1.10
2023-01-29T04:10:57.047Z,1.10
2023-01-29T04:12:03.798Z,1.10
2023-01-29T04:13:07.077Z,1.09
2023-01-29T04:14:10.539Z,1.08
2023-01-29T04:15:15.346Z,1.06
2023-01-29T04:16:21.806Z,1.03
2023-01-29T04:17:29.930Z,1.01
2023-01-29T04:18:32.651Z,0.98
2023-01-29T04:19:35.044Z,0.97
2023-01-29T04:20:37.736Z,0.96
2023-01-29T04:21:40.079Z,0.96
2023-01-29T04:22:47.066Z,0.95
2023-01-29T04:23:48.765Z,0.93
2023-01-29T04:24:52.299Z,0.95
2023-01-29T04:26:10.512Z,0.95
2023-01-29T04:27:24.641Z,0.95
2023-01-29T04:28:29.148Z,0.94
2023-01-29T04:29:41.555Z,0.91
2023-01-29T04:30:47.636Z,0.90
2023-01-29T04:31:55.597Z,0.91
2023-01-29T04:33:13.431Z,0.91
2023-01-29T04:34:21.853Z,0.87
2023-01-29T04:35:30.863Z,0.86
2023-01-29T04:36:37.911Z,0.86
2023-01-29T04:37:44.192Z,0.85
2023-01-29T04:38:54.703Z,0.77
2023-01-29T04:40:01.306Z,0.60
2023-01-29T04:41:07.128Z,0.54
2023-01-29T04:42:13.567Z,0.49
2023-01-29T04:43:22.290Z,0.46
2023-01-29T04:44:34.380Z,0.45
2023-01-29T04:45:45.477Z,0.46
2023-01-29T04:46:49.974Z,0.47
2023-01-29T04:48:02.142Z,0.49
2023-01-29T04:49:14.838Z,0.51
2023-01-29T04:50:19.508Z,0.49
2023-01-29T04:51:25.199Z,0.49
2023-01-29T04:52:34.656Z,0.46
2023-01-29T04:53:40.940Z,0.44
2023-01-29T04:54:53.865Z,0.41
2023-01-29T04:55:58.682Z,0.35
2023-01-29T04:57:07.564Z,0.28
2023-01-29T04:58:14.653Z,0.21
2023-01-29T04:59:21.160Z,0.19
2023-01-29T05:00:26.038Z,0.18
2023-01-29T05:01:29.855Z,0.20
2023-01-29T05:02:33.582Z,0.22
2023-01-29T05:03:37.626Z,0.25
2023-01-29T05:04:41.917Z,0.26
2023-01-29T05:05:47.135Z,0.27
2023-01-29T05:06:49.534Z,0.27
2023-01-29T05:07:52.397Z,0.31
2023-01-29T05:08:55.265Z,0.31
2023-01-29T05:09:58.138Z,0.30
2023-01-29T05:11:00.153Z,0.28
2023-01-29T05:12:03.488Z,0.26
2023-01-29T05:13:10.802Z,0.25
2023-01-29T05:14:15.586Z,0.25
2023-01-29T05:15:20.541Z,0.25
2023-01-29T05:16:26.743Z,0.25
2023-01-29T05:17:28.816Z,0.21
2023-01-29T05:18:32.074Z,0.24
2023-01-29T05:19:33.887Z,0.24
2023-01-29T05:20:39.928Z,0.26
2023-01-29T05:21:44.060Z,0.30
2023-01-29T05:22:48.169Z,0.31
2023-01-29T05:24:11.163Z,0.35
2023-01-29T05:25:23.061Z,0.38
2023-01-29T05:26:43.488Z,0.39
2023-01-29T05:28:03.849Z,0.42
2023-01-29T05:29:06.557Z,0.45
2023-01-29T05:30:10.368Z,0.47
2023-01-29T05:31:13.101Z,0.48
2023-01-29T05:32:15.891Z,0.51
2023-01-29T05:33:19.783Z,0.49
2023-01-29T05:34:21.567Z,0.54
2023-01-29T05:35:24.302Z,0.54
2023-01-29T05:36:27.427Z,0.55
2023-01-29T05:37:30.162Z,0.55
2023-01-29T05:38:32.024Z,0.55
2023-01-29T05:39:34.907Z,0.55
2023-01-29T05:40:36.967Z,0.54
2023-01-29T05:41:39.610Z,0.54
2023-01-29T05:42:41.378Z,0.54
2023-01-29T05:43:44.088Z,0.54
2023-01-29T05:44:45.961Z,0.55
2023-01-29T05:45:53.557Z,0.56
2023-01-29T05:46:55.363Z,0.59
2023-01-29T05:47:58.231Z,0.61
2023-01-29T05:48:59.991Z,0.60
2023-01-29T05:50:02.714Z,0.58
2023-01-29T05:51:05.363Z,0.55
2023-01-29T05:52:09.439Z,0.51
2023-01-29T05:53:12.157Z,0.47
2023-01-29T05:54:14.169Z,0.42
2023-01-29T05:55:17.102Z,0.38
2023-01-29T05:56:18.940Z,0.38
2023-01-29T05:57:22.147Z,0.38
2023-01-29T05:58:23.979Z,0.37
2023-01-29T05:59:26.856Z,0.37
2023-01-29T06:00:28.594Z,0.35
2023-01-29T06:01:31.323Z,0.31
2023-01-29T06:02:33.204Z,0.25
2023-01-29T06:03:38.884Z,0.22
2023-01-29T06:04:40.625Z,0.18
2023-01-29T06:05:43.333Z,0.16
2023-01-29T06:06:45.159Z,0.13
2023-01-29T06:07:49.351Z,0.13
2023-01-29T06:08:53.446Z,0.15
2023-01-29T06:09:56.157Z,0.11
2023-01-29T06:10:57.892Z,0.08
2023-01-29T06:12:00.695Z,0.07
2023-01-29T06:13:02.549Z,0.07
2023-01-29T06:14:05.237Z,0.08
2023-01-29T06:15:07.737Z,0.09
2023-01-29T06:16:11.786Z,0.08
2023-01-29T06:17:13.549Z,0.07
2023-01-29T06:18:16.228Z,0.08
2023-01-29T06:19:18.289Z,0.09
2023-01-29T06:20:21.283Z,0.09
2023-01-29T06:21:23.057Z,0.11
2023-01-29T06:22:25.778Z,0.11
2023-01-29T06:23:29.159Z,0.11
2023-01-29T06:24:32.832Z,0.10
2023-01-29T06:25:34.706Z,0.06
2023-01-29T06:26:37.479Z,0.06
2023-01-29T06:27:39.201Z,0.04
2023-01-29T06:28:42.391Z,0.05
2023-01-29T06:29:45.151Z,0.02
2023-01-29T06:30:46.886Z,0.00
2023-01-29T06:31:49.750Z,-0.03
2023-01-29T06:32:51.570Z,-0.03
2023-01-29T06:33:54.300Z,-0.07
2023-01-29T06:34:56.040Z,-0.09
2023-01-29T06:35:58.980Z,-0.11
2023-01-29T06:37:00.655Z,-0.10
2023-01-29T06:38:03.345Z,-0.10
2023-01-29T06:39:06.430Z,-0.10
2023-01-29T06:40:10.151Z,-0.08
2023-01-29T06:41:13.247Z,-0.05
2023-01-29T06:42:15.941Z,-0.05
2023-01-29T06:43:17.764Z,-0.02
2023-01-29T06:44:20.490Z,0.00
2023-01-29T06:45:22.238Z,0.02
2023-01-29T06:46:24.983Z,0.04
2023-01-29T06:47:28.720Z,0.06
2023-01-29T06:48:30.998Z,0.06
2023-01-29T06:49:33.701Z,0.08
2023-01-29T06:50:35.401Z,0.09
2023-01-29T06:51:38.199Z,0.09
2023-01-29T06:52:39.926Z,0.10
2023-01-29T06:53:45.336Z,0.12
2023-01-29T06:54:49.984Z,0.13
2023-01-29T06:55:52.105Z,0.15
2023-01-29T06:56:56.225Z,0.17
2023-01-29T06:57:57.992Z,0.18
2023-01-29T06:59:01.012Z,0.19
2023-01-29T07:00:02.819Z,0.19
2023-01-29T07:01:06.804Z,0.20
2023-01-29T07:02:09.406Z,0.21
2023-01-29T07:03:12.247Z,0.21
2023-01-29T07:04:13.952Z,0.21
2023-01-29T07:05:16.655Z,0.23
2023-01-29T07:06:19.418Z,0.24
2023-01-29T07:07:21.134Z,0.25
2023-01-29T07:08:23.821Z,0.28
2023-01-29T07:09:25.526Z,0.31
2023-01-29T07:10:29.710Z,0.33
2023-01-29T07:11:31.931Z,0.33
2023-01-29T07:12:34.669Z,0.34
2023-01-29T07:13:36.435Z,0.36
2023-01-29T07:14:39.126Z,0.38
2023-01-29T07:15:40.843Z,0.40
2023-01-29T07:16:43.599Z,0.41
2023-01-29T07:17:45.370Z,0.41
2023-01-29T07:18:48.106Z,0.41
2023-01-29T07:19:49.813Z,0.42
2023-01-29T07:20:52.475Z,0.44
2023-01-29T07:21:54.331Z,0.45
2023-01-29T07:22:57.880Z,0.44
2023-01-29T07:23:59.797Z,0.45
2023-01-29T07:25:02.645Z,0.44
2023-01-29T07:26:06.302Z,0.45
2023-01-29T07:27:09.067Z,0.46
2023-01-29T07:28:10.878Z,0.47
2023-01-29T07:29:13.541Z,0.47
2023-01-29T07:30:16.217Z,0.47
2023-01-29T07:31:19.153Z,0.49
2023-01-29T07:32:20.941Z,0.49
2023-01-29T07:33:23.733Z,0.50
2023-01-29T07:34:25.602Z,0.51
2023-01-29T07:35:28.267Z,0.52
2023-01-29T07:36:30.044Z,0.53
2023-01-29T07:37:32.787Z,0.55
2023-01-29T07:38:34.611Z,0.57
2023-01-29T07:39:37.308Z,0.60
2023-01-29T07:40:39.039Z,0.63
2023-01-29T07:41:43.077Z,0.63
2023-01-29T07:42:45.556Z,0.65
2023-01-29T07:43:48.350Z,0.66
2023-01-29T07:44:50.090Z,0.67
2023-01-29T07:45:52.924Z,0.69
2023-01-29T07:46:54.693Z,0.70
2023-01-29T07:47:57.813Z,0.70
2023-01-29T07:48:59.492Z,0.71
2023-01-29T07:50:02.222Z,0.70
2023-01-29T07:51:04.186Z,0.70
2023-01-29T07:52:06.941Z,0.71
2023-01-29T07:53:15.360Z,0.71
2023-01-29T07:54:18.163Z,0.72
2023-01-29T07:55:20.018Z,0.72
2023-01-29T07:56:22.700Z,0.72
2023-01-29T07:57:25.756Z,0.71
2023-01-29T07:58:28.526Z,0.71
2023-01-29T07:59:30.241Z,0.70
2023-01-29T08:00:33.621Z,0.66
2023-01-29T08:01:36.369Z,0.65
2023-01-29T08:02:38.171Z,0.62
2023-01-29T08:03:40.873Z,0.59
2023-01-29T08:04:42.576Z,0.59
2023-01-29T08:05:45.513Z,0.57
2023-01-29T08:06:47.310Z,0.55
2023-01-29T08:08:05.768Z,0.54
2023-01-29T08:09:09.581Z,0.53
2023-01-29T08:10:11.885Z,0.54
2023-01-29T08:11:15.367Z,0.55
2023-01-29T08:12:18.088Z,0.58
2023-01-29T08:13:21.380Z,0.61
2023-01-29T08:14:24.068Z,0.62
2023-01-29T08:15:26.315Z,0.64
2023-01-29T08:16:29.066Z,0.67
2023-01-29T08:17:30.750Z,0.70
2023-01-29T08:18:33.447Z,0.75
2023-01-29T08:19:35.202Z,0.78
2023-01-29T08:20:37.943Z,0.81
2023-01-29T08:21:39.660Z,0.87
2023-01-29T08:22:42.313Z,0.91
2023-01-29T08:23:45.010Z,0.97
2023-01-29T08:24:53.727Z,0.97
2023-01-29T08:26:03.584Z,1.00
2023-01-29T08:27:05.321Z,1.02
2023-01-29T08:28:08.717Z,1.05
2023-01-29T08:29:12.513Z,1.10
2023-01-29T08:30:15.877Z,1.18
2023-01-29T08:31:20.507Z,1.26
2023-01-29T08:32:23.268Z,1.36
2023-01-29T08:33:38.920Z,1.40
2023-01-29T08:34:42.059Z,1.45
2023-01-29T08:35:45.442Z,1.47
2023-01-29T08:36:48.331Z,1.50
2023-01-29T08:37:54.262Z,1.48
2023-01-29T08:38:57.090Z,1.50
2023-01-29T08:39:58.816Z,1.49
2023-01-29T08:41:01.744Z,1.46
2023-01-29T08:42:03.647Z,1.42
2023-01-29T08:43:09.440Z,1.41
2023-01-29T08:44:12.854Z,1.39
2023-01-29T08:45:15.686Z,1.39
2023-01-29T08:46:18.538Z,1.37
2023-01-29T08:47:21.306Z,1.37
2023-01-29T08:48:23.140Z,1.36
2023-01-29T08:49:25.920Z,1.27
2023-01-29T08:50:27.711Z,1.29
2023-01-29T08:51:30.556Z,1.18
2023-01-29T08:52:32.378Z,1.24
2023-01-29T08:53:35.054Z,1.25
2023-01-29T08:54:37.010Z,1.14
2023-01-29T08:55:41.458Z,1.16
2023-01-29T08:56:44.289Z,1.20
2023-01-29T08:57:46.103Z,1.20
2023-01-29T08:58:48.835Z,1.22
2023-01-29T08:59:51.879Z,1.26
2023-01-29T09:00:54.607Z,1.26
2023-01-29T09:01:56.312Z,1.31
2023-01-29T09:03:00.931Z,1.30
2023-01-29T09:04:03.657Z,1.29
2023-01-29T09:05:06.074Z,1.25
2023-01-29T09:06:10.042Z,1.20
2023-01-29T09:07:11.761Z,1.17
2023-01-29T09:08:15.442Z,1.11
2023-01-29T09:09:17.111Z,1.05
2023-01-29T09:10:19.814Z,1.00
2023-01-29T09:11:22.708Z,0.94
2023-01-29T09:12:24.579Z,0.89
2023-01-29T09:13:27.403Z,0.82
2023-01-29T09:14:30.116Z,0.79
2023-01-29T09:15:33.187Z,0.75
2023-01-29T09:16:35.934Z,0.65
2023-01-29T09:17:37.687Z,0.64
2023-01-29T09:18:40.360Z,0.60
2023-01-29T09:19:43.043Z,0.51
2023-01-29T09:20:44.754Z,0.45
2023-01-29T09:21:47.453Z,0.40
2023-01-29T09:22:51.942Z,0.42
2023-01-29T09:23:54.618Z,0.42
2023-01-29T09:24:56.355Z,0.42
2023-01-29T09:25:59.195Z,0.45
2023-01-29T09:27:00.951Z,0.45
2023-01-29T09:28:03.742Z,0.47
2023-01-29T09:29:05.607Z,0.47
2023-01-29T09:30:09.086Z,0.44
2023-01-29T09:31:13.231Z,0.42
2023-01-29T09:32:16.861Z,0.46
2023-01-29T09:33:22.487Z,0.47
2023-01-29T09:34:24.234Z,0.43
2023-01-29T09:35:27.029Z,0.35
2023-01-29T09:36:29.710Z,0.37
2023-01-29T09:37:31.544Z,0.37
2023-01-29T09:38:34.266Z,0.31
2023-01-29T09:39:36.006Z,0.33
2023-01-29T09:40:44.688Z,0.37
2023-01-29T09:41:54.092Z,0.37
2023-01-29T09:42:58.919Z,0.40
2023-01-29T09:44:03.861Z,0.35
2023-01-29T09:45:11.024Z,0.35
2023-01-29T09:46:20.825Z,0.32
2023-01-29T09:47:24.518Z,0.31
2023-01-29T09:48:29.332Z,0.24
2023-01-29T09:49:35.635Z,0.29
2023-01-29T09:50:40.784Z,0.30
2023-01-29T09:51:47.908Z,0.27
2023-01-29T09:52:53.409Z,0.33
2023-01-29T09:54:04.975Z,0.38
2023-01-29T09:55:13.281Z,0.41
2023-01-29T09:56:19.779Z,0.45
2023-01-29T09:57:26.329Z,0.41
2023-01-29T09:58:31.519Z,0.47
2023-01-29T09:59:33.239Z,0.52
2023-01-29T10:00:38.886Z,0.56
2023-01-29T10:01:48.575Z,0.63
2023-01-29T10:03:04.670Z,0.69
2023-01-29T10:04:35.026Z,0.79
2023-01-29T10:05:51.469Z,0.87
2023-01-29T10:07:04.669Z,0.91
2023-01-29T10:08:21.697Z,0.96
2023-01-29T10:09:44.816Z,1.02
2023-01-29T10:10:50.947Z,1.03
2023-01-29T10:12:01.775Z,1.03
2023-01-29T10:13:12.180Z,1.05
2023-01-29T10:14:21.044Z,1.07
2023-01-29T10:15:33.677Z,1.10
2023-01-29T10:16:46.828Z,1.09
2023-01-29T10:18:05.072Z,1.08
2023-01-29T10:19:38.068Z,1.08
2023-01-29T10:20:56.342Z,1.12
2023-01-29T10:22:09.263Z,1.12
2023-01-29T10:23:19.048Z,1.16
2023-01-29T10:24:26.703Z,1.18
2023-01-29T10:25:29.771Z,1.18
2023-01-29T10:26:32.152Z,1.14
2023-01-29T10:27:38.477Z,1.19
2023-01-29T10:28:46.239Z,1.19
2023-01-29T10:29:50.321Z,1.18
2023-01-29T10:30:55.433Z,1.20
2023-01-29T10:32:04.954Z,1.15
2023-01-29T10:33:09.809Z,1.19
2023-01-29T10:34:15.722Z,1.09
2023-01-29T10:35:24.410Z,1.13
2023-01-29T10:36:34.533Z,1.14
2023-01-29T10:37:39.915Z,1.13
2023-01-29T10:38:45.771Z,1.13
2023-01-29T10:39:47.797Z,1.15
2023-01-29T10:40:57.652Z,1.03
2023-01-29T10:42:18.793Z,0.99
2023-01-29T10:43:28.053Z,0.99
2023-01-29T10:44:40.131Z,0.98
2023-01-29T10:45:46.924Z,0.95
2023-01-29T10:47:05.856Z,0.95
2023-01-29T10:48:42.321Z,1.02
2023-01-29T10:50:05.540Z,1.04
2023-01-29T10:51:17.530Z,1.00
2023-01-29T10:52:34.807Z,1.08
2023-01-29T10:53:49.844Z,1.10
2023-01-29T10:55:02.072Z,1.14
2023-01-29T10:56:22.263Z,1.16
2023-01-29T10:57:35.483Z,1.16
2023-01-29T10:58:41.842Z,1.19
2023-01-29T10:59:54.833Z,1.23
2023-01-29T11:00:57.696Z,1.23
2023-01-29T11:02:00.715Z,1.29
2023-01-29T11:03:26.348Z,1.31
2023-01-29T11:04:31.635Z,1.37
2023-01-29T11:05:37.456Z,1.41
2023-01-29T11:06:40.259Z,1.48
2023-01-29T11:07:42.052Z,1.50
2023-01-29T11:08:48.390Z,1.47
2023-01-29T11:09:53.679Z,1.51
2023-01-29T11:11:04.457Z,1.63
2023-01-29T11:12:12.439Z,1.70
2023-01-29T11:13:15.308Z,1.78
2023-01-29T11:14:22.697Z,1.88
2023-01-29T11:15:28.985Z,1.85
2023-01-29T11:16:33.307Z,1.86
2023-01-29T11:17:36.022Z,2.03
2023-01-29T11:18:57.934Z,2.18
2023-01-29T11:19:59.696Z,2.21
2023-01-29T11:21:04.083Z,2.25
2023-01-29T11:22:09.185Z,2.26
2023-01-29T11:23:33.368Z,2.23
2023-01-29T11:24:36.058Z,2.23
2023-01-29T11:25:37.746Z,2.27
2023-01-29T11:26:43.264Z,2.27
2023-01-29T11:27:46.733Z,2.19
2023-01-29T11:28:54.849Z,2.23
2023-01-29T11:29:57.561Z,2.26
2023-01-29T11:30:59.379Z,2.23
2023-01-29T11:32:04.982Z,2.17
2023-01-29T11:33:10.549Z,2.16
2023-01-29T11:34:20.754Z,2.05
2023-01-29T11:35:24.553Z,2.04
2023-01-29T11:36:37.105Z,2.13
2023-01-29T11:37:41.601Z,2.12
2023-01-29T11:38:43.373Z,2.17
2023-01-29T11:39:47.494Z,2.19
2023-01-29T11:40:50.988Z,2.09
2023-01-29T11:41:55.905Z,2.05
2023-01-29T11:43:13.264Z,1.96
2023-01-29T11:44:28.008Z,1.93
2023-01-29T11:45:33.831Z,1.87
2023-01-29T11:46:35.599Z,1.82
2023-01-29T11:47:38.277Z,1.83
2023-01-29T11:48:42.748Z,1.89
2023-01-29T11:49:49.288Z,1.94
2023-01-29T11:50:52.961Z,2.03
2023-01-29T11:51:57.246Z,2.13
2023-01-29T11:52:59.557Z,2.21
2023-01-29T11:54:03.562Z,2.31
2023-01-29T11:55:12.038Z,2.38
2023-01-29T11:56:19.698Z,2.43
2023-01-29T11:57:34.072Z,2.39
2023-01-29T11:58:36.160Z,2.28
2023-01-29T11:59:44.193Z,2.18
2023-01-29T12:00:47.258Z,1.96
2023-01-29T12:01:49.979Z,1.95
2023-01-29T12:02:55.435Z,2.00
2023-01-29T12:03:58.185Z,2.03
2023-01-29T12:05:06.325Z,2.08
2023-01-29T12:06:14.881Z,2.07
2023-01-29T12:07:19.357Z,2.07
2023-01-29T12:08:23.492Z,2.04
2023-01-29T12:09:28.248Z,1.98
2023-01-29T12:10:32.986Z,2.05
2023-01-29T12:11:36.668Z,2.02
2023-01-29T12:12:40.807Z,2.08
2023-01-29T12:13:44.278Z,2.09
2023-01-29T12:14:45.972Z,2.08
2023-01-29T12:15:49.540Z,2.07
2023-01-29T12:16:55.113Z,2.07
2023-01-29T12:18:04.340Z,2.09
2023-01-29T12:19:11.524Z,2.05
2023-01-29T12:20:17.291Z,2.05
2023-01-29T12:21:23.200Z,2.13
2023-01-29T12:22:30.621Z,2.09
2023-01-29T12:23:36.478Z,2.16
2023-01-29T12:24:43.056Z,2.24
2023-01-29T12:25:50.676Z,2.21
2023-01-29T12:26:57.013Z,2.21
2023-01-29T12:28:01.135Z,2.26
2023-01-29T12:29:25.243Z,2.34
2023-01-29T12:30:30.923Z,2.41
2023-01-29T12:31:38.092Z,2.42
2023-01-29T12:32:46.502Z,2.44
2023-01-29T12:33:52.601Z,2.42
2023-01-29T12:36:04.265Z,2.52
2023-01-29T12:37:14.999Z,2.52
2023-01-29T12:38:19.678Z,2.47
2023-01-29T12:39:21.693Z,2.42
2023-01-29T12:40:26.623Z,2.38
2023-01-29T12:41:38.589Z,2.38
2023-01-29T12:42:42.131Z,2.33
2023-01-29T12:43:47.426Z,2.19
2023-01-29T12:44:52.823Z,2.04
2023-01-29T12:45:55.509Z,2.07
2023-01-29T12:47:00.948Z,1.99
2023-01-29T12:48:07.617Z,1.97
2023-01-29T12:49:14.263Z,1.97
2023-01-29T12:50:20.704Z,1.99
2023-01-29T12:51:26.664Z,1.91
2023-01-29T12:52:38.997Z,1.93
2023-01-29T12:53:45.953Z,1.93
2023-01-29T12:54:51.317Z,1.82
2023-01-29T12:55:56.561Z,1.84
2023-01-29T12:57:00.908Z,1.91
2023-01-29T12:58:05.060Z,1.94
2023-01-29T12:59:14.158Z,1.94
2023-01-29T13:00:20.435Z,1.98
2023-01-29T13:01:27.638Z,1.96
2023-01-29T13:02:36.611Z,1.95
2023-01-29T13:03:47.356Z,1.95
2023-01-29T13:04:56.337Z,1.93
2023-01-29T13:06:01.283Z,1.96
2023-01-29T13:07:12.254Z,1.98
2023-01-29T13:08:19.756Z,1.96
2023-01-29T13:09:25.884Z,2.00
2023-01-29T13:10:30.857Z,2.05
2023-01-29T13:11:37.802Z,2.12
2023-01-29T13:12:41.615Z,2.17
2023-01-29T13:13:54.002Z,2.07
2023-01-29T13:14:58.993Z,2.07
2023-01-29T13:16:02.604Z,2.06
2023-01-29T13:17:09.569Z,2.04
2023-01-29T13:18:39.262Z,1.84
2023-01-29T13:19:43.391Z,1.75
2023-01-29T13:20:47.649Z,1.78
2023-01-29T13:21:50.361Z,1.83
2023-01-29T13:22:57.353Z,1.84
2023-01-29T13:24:02.536Z,1.89
2023-01-29T13:25:06.104Z,1.89
2023-01-29T13:26:07.982Z,1.90
2023-01-29T13:27:21.081Z,1.90
2023-01-29T13:28:25.255Z,1.91
2023-01-29T13:29:29.681Z,1.88
2023-01-29T13:30:32.989Z,1.91
2023-01-29T13:31:36.542Z,1.91
2023-01-29T13:32:39.467Z,1.80
2023-01-29T13:33:42.337Z,1.78
2023-01-29T13:34:46.694Z,1.76
2023-01-29T13:35:53.217Z,1.67
2023-01-29T13:36:57.482Z,1.75
2023-01-29T13:38:01.591Z,1.77
2023-01-29T13:39:06.576Z,1.78
2023-01-29T13:40:21.329Z,1.64
2023-01-29T13:41:32.122Z,1.68
2023-01-29T13:42:40.445Z,1.74
2023-01-29T13:43:43.149Z,1.75
2023-01-29T13:44:49.481Z,1.72
2023-01-29T13:45:53.104Z,1.72
2023-01-29T13:47:00.495Z,1.81
2023-01-29T13:48:11.384Z,1.83
2023-01-29T13:49:26.828Z,1.93
2023-01-29T13:50:34.097Z,2.01
2023-01-29T13:51:37.697Z,2.07
2023-01-29T13:52:43.386Z,2.19
2023-01-29T13:53:53.507Z,2.25
2023-01-29T13:54:58.738Z,2.25
2023-01-29T13:56:36.401Z,2.33
2023-01-29T13:57:49.290Z,2.41
2023-01-29T13:58:55.310Z,2.49
2023-01-29T13:59:57.928Z,2.62
2023-01-29T14:01:02.158Z,2.67
2023-01-29T14:02:20.348Z,2.72
2023-01-29T14:04:08.387Z,2.72
2023-01-29T14:05:41.959Z,2.77
2023-01-29T14:06:48.631Z,2.86
2023-01-29T14:07:52.019Z,2.98
2023-01-29T14:08:55.115Z,3.10
2023-01-29T14:10:16.467Z,3.34
2023-01-29T14:11:36.761Z,3.64
2023-01-29T14:12:47.482Z,3.84
2023-01-29T14:13:49.922Z,4.07
2023-01-29T14:15:04.166Z,4.30
2023-01-29T14:16:28.115Z,4.59
2023-01-29T14:17:30.039Z,4.86
2023-01-29T14:18:33.669Z,5.23
2023-01-29T14:19:35.413Z,5.62
2023-01-29T14:20:45.954Z,6.01
2023-01-29T14:21:51.017Z,6.56
2023-01-29T14:22:56.761Z,7.01
2023-01-29T14:24:08.999Z,7.30
2023-01-29T14:25:16.716Z,7.64
2023-01-29T14:26:29.598Z,7.89
2023-01-29T14:27:31.699Z,8.10
2023-01-29T14:28:35.345Z,8.28
2023-01-29T14:29:40.767Z,8.50
2023-01-29T14:30:47.732Z,8.71
2023-01-29T14:31:53.414Z,8.85
2023-01-29T14:32:55.279Z,9.08
2023-01-29T14:34:02.353Z,9.32
2023-01-29T14:35:11.123Z,9.54
2023-01-29T14:36:13.813Z,9.68
2023-01-29T14:37:22.341Z,9.88
2023-01-29T14:38:26.748Z,10.00
2023-01-29T14:39:35.347Z,10.14